sensor_id;sensor_type;location;lat;lon;timestamp;temperature;humidity
39825;DHT22;25503;52.532;13.640;2022-12-08T00:01:43;1.10;99.90
39825;DHT22;25503;52.532;13.640;2022-12-08T00:04:09;1.10;99.90
39825;DHT22;25503;52.532;13.640;2022-12-08T00:06:37;1.20;99.90
39825;DHT22;25503;52.532;13.640;2022-12-08T00:11:58;1.10;99.90
39825;DHT22;25503;52.532;13.640;2022-12-08T00:14:45;1.10;99.90
39825;DHT22;25503;52.532;13.640;2022-12-08T00:17:13;1.10;99.90
39825;DHT22;25503;52.532;13.640;2022-12-08T00:19:40;1.10;99.90
39825;DHT22;25503;52.532;13.640;2022-12-08T00:22:07;1.00;99.90
39825;DHT22;25503;52.532;13.640;2022-12-08T00:24:35;1.00;99.90
39825;DHT22;25503;52.532;13.640;2022-12-08T00:27:04;1.00;99.90
39825;DHT22;25503;52.532;13.640;2022-12-08T00:29:30;1.00;99.90
39825;DHT22;25503;52.532;13.640;2022-12-08T00:31:55;1.10;99.90
39825;DHT22;25503;52.532;13.640;2022-12-08T00:34:21;1.10;99.90
39825;DHT22;25503;52.532;13.640;2022-12-08T00:36:47;1.00;99.90
39825;DHT22;25503;52.532;13.640;2022-12-08T00:39:13;1.10;99.90
39825;DHT22;25503;52.532;13.640;2022-12-08T00:41:39;1.00;99.90
39825;DHT22;25503;52.532;13.640;2022-12-08T00:44:23;1.00;99.90
39825;DHT22;25503;52.532;13.640;2022-12-08T00:46:49;1.00;99.90
39825;DHT22;25503;52.532;13.640;2022-12-08T00:49:15;1.00;99.90
39825;DHT22;25503;52.532;13.640;2022-12-08T00:51:41;0.90;99.90
39825;DHT22;25503;52.532;13.640;2022-12-08T00:54:07;0.90;99.90
39825;DHT22;25503;52.532;13.640;2022-12-08T00:56:33;0.90;99.90
39825;DHT22;25503;52.532;13.640;2022-12-08T00:58:59;0.90;99.90
39825;DHT22;25503;52.532;13.640;2022-12-08T01:01:25;0.90;99.90
39825;DHT22;25503;52.532;13.640;2022-12-08T01:03:51;0.90;99.90
39825;DHT22;25503;52.532;13.640;2022-12-08T01:06:17;0.90;99.90
39825;DHT22;25503;52.532;13.640;2022-12-08T01:08:43;0.90;99.90
39825;DHT22;25503;52.532;13.640;2022-12-08T01:11:12;0.90;99.90
39825;DHT22;25503;52.532;13.640;2022-12-08T01:13:39;0.90;99.90
39825;DHT22;25503;52.532;13.640;2022-12-08T01:16:05;1.00;99.90
39825;DHT22;25503;52.532;13.640;2022-12-08T01:18:31;1.00;99.90
39825;DHT22;25503;52.532;13.640;2022-12-08T01:21:07;1.00;99.90
39825;DHT22;25503;52.532;13.640;2022-12-08T01:23:33;1.00;99.90
39825;DHT22;25503;52.532;13.640;2022-12-08T01:26:07;1.10;99.90
39825;DHT22;25503;52.532;13.640;2022-12-08T01:28:33;1.10;99.90
39825;DHT22;25503;52.532;13.640;2022-12-08T01:30:59;1.10;99.90
39825;DHT22;25503;52.532;13.640;2022-12-08T01:33:25;1.20;99.90
39825;DHT22;25503;52.532;13.640;2022-12-08T01:35:51;1.10;99.90
39825;DHT22;25503;52.532;13.640;2022-12-08T01:38:17;1.20;99.90
39825;DHT22;25503;52.532;13.640;2022-12-08T01:40:43;1.20;99.90
39825;DHT22;25503;52.532;13.640;2022-12-08T01:43:17;1.20;99.90
39825;DHT22;25503;52.532;13.640;2022-12-08T01:45:43;1.20;99.90
39825;DHT22;25503;52.532;13.640;2022-12-08T01:48:18;1.20;99.90
39825;DHT22;25503;52.532;13.640;2022-12-08T01:50:46;1.20;99.90
39825;DHT22;25503;52.532;13.640;2022-12-08T01:53:17;1.20;99.90
39825;DHT22;25503;52.532;13.640;2022-12-08T01:55:50;1.20;99.90
39825;DHT22;25503;52.532;13.640;2022-12-08T01:58:25;1.30;99.90
39825;DHT22;25503;52.532;13.640;2022-12-08T02:00:51;1.20;99.90
39825;DHT22;25503;52.532;13.640;2022-12-08T02:03:23;1.30;99.90
39825;DHT22;25503;52.532;13.640;2022-12-08T02:05:50;1.30;99.90
39825;DHT22;25503;52.532;13.640;2022-12-08T02:08:16;1.30;99.90
39825;DHT22;25503;52.532;13.640;2022-12-08T02:10:42;1.30;99.90
39825;DHT22;25503;52.532;13.640;2022-12-08T02:13:12;1.30;99.90
39825;DHT22;25503;52.532;13.640;2022-12-08T02:15:52;1.30;99.90
39825;DHT22;25503;52.532;13.640;2022-12-08T02:21:17;1.30;99.90
39825;DHT22;25503;52.532;13.640;2022-12-08T02:23:53;1.30;99.90
39825;DHT22;25503;52.532;13.640;2022-12-08T02:34:58;1.20;99.90
39825;DHT22;25503;52.532;13.640;2022-12-08T02:37:32;1.20;99.90
39825;DHT22;25503;52.532;13.640;2022-12-08T02:40:13;1.30;99.90
39825;DHT22;25503;52.532;13.640;2022-12-08T02:43:07;1.20;99.90
39825;DHT22;25503;52.532;13.640;2022-12-08T02:45:43;1.20;99.90
39825;DHT22;25503;52.532;13.640;2022-12-08T02:48:10;1.30;99.90
39825;DHT22;25503;52.532;13.640;2022-12-08T02:50:36;1.20;99.90
39825;DHT22;25503;52.532;13.640;2022-12-08T02:53:01;1.20;99.90
39825;DHT22;25503;52.532;13.640;2022-12-08T03:06:47;1.20;99.90
39825;DHT22;25503;52.532;13.640;2022-12-08T03:09:38;1.20;99.90
39825;DHT22;25503;52.532;13.640;2022-12-08T03:12:19;1.20;99.90
39825;DHT22;25503;52.532;13.640;2022-12-08T03:14:52;1.20;99.90
39825;DHT22;25503;52.532;13.640;2022-12-08T03:17:20;1.20;99.90
39825;DHT22;25503;52.532;13.640;2022-12-08T03:19:48;1.30;99.90
39825;DHT22;25503;52.532;13.640;2022-12-08T03:22:16;1.20;99.90
39825;DHT22;25503;52.532;13.640;2022-12-08T03:24:44;1.30;99.90
39825;DHT22;25503;52.532;13.640;2022-12-08T03:27:15;1.30;99.90
39825;DHT22;25503;52.532;13.640;2022-12-08T03:29:45;1.30;99.90
39825;DHT22;25503;52.532;13.640;2022-12-08T03:34:57;1.30;99.90
39825;DHT22;25503;52.532;13.640;2022-12-08T03:37:24;1.30;99.90
39825;DHT22;25503;52.532;13.640;2022-12-08T03:39:51;1.30;99.90
39825;DHT22;25503;52.532;13.640;2022-12-08T03:42:16;1.30;99.90
39825;DHT22;25503;52.532;13.640;2022-12-08T03:44:42;1.40;99.90
39825;DHT22;25503;52.532;13.640;2022-12-08T03:47:07;1.40;99.90
39825;DHT22;25503;52.532;13.640;2022-12-08T03:49:33;1.40;99.90
39825;DHT22;25503;52.532;13.640;2022-12-08T03:51:58;1.40;99.90
39825;DHT22;25503;52.532;13.640;2022-12-08T03:54:24;1.40;99.90
39825;DHT22;25503;52.532;13.640;2022-12-08T03:56:50;1.40;99.90
39825;DHT22;25503;52.532;13.640;2022-12-08T03:59:15;1.40;99.90
39825;DHT22;25503;52.532;13.640;2022-12-08T04:01:41;1.40;99.90
39825;DHT22;25503;52.532;13.640;2022-12-08T04:04:07;1.40;99.90
39825;DHT22;25503;52.532;13.640;2022-12-08T04:06:32;1.40;99.90
39825;DHT22;25503;52.532;13.640;2022-12-08T04:08:58;1.40;99.90
39825;DHT22;25503;52.532;13.640;2022-12-08T04:11:24;1.40;99.90
39825;DHT22;25503;52.532;13.640;2022-12-08T04:13:50;1.40;99.90
39825;DHT22;25503;52.532;13.640;2022-12-08T04:16:19;1.30;99.90
39825;DHT22;25503;52.532;13.640;2022-12-08T04:18:45;1.30;99.90
39825;DHT22;25503;52.532;13.640;2022-12-08T04:21:11;1.40;99.90
39825;DHT22;25503;52.532;13.640;2022-12-08T04:23:36;1.30;99.90
39825;DHT22;25503;52.532;13.640;2022-12-08T04:26:02;1.30;99.90
39825;DHT22;25503;52.532;13.640;2022-12-08T04:28:28;1.30;99.90
39825;DHT22;25503;52.532;13.640;2022-12-08T04:30:54;1.40;99.90
39825;DHT22;25503;52.532;13.640;2022-12-08T04:33:20;1.40;99.90
39825;DHT22;25503;52.532;13.640;2022-12-08T04:35:45;1.40;99.90
39825;DHT22;25503;52.532;13.640;2022-12-08T04:38:11;1.40;99.90
39825;DHT22;25503;52.532;13.640;2022-12-08T04:40:37;1.40;99.90
39825;DHT22;25503;52.532;13.640;2022-12-08T04:43:03;1.40;99.90
39825;DHT22;25503;52.532;13.640;2022-12-08T04:45:29;1.40;99.90
39825;DHT22;25503;52.532;13.640;2022-12-08T04:47:54;1.40;99.90
39825;DHT22;25503;52.532;13.640;2022-12-08T04:50:20;1.40;99.90
39825;DHT22;25503;52.532;13.640;2022-12-08T04:52:45;1.40;99.90
39825;DHT22;25503;52.532;13.640;2022-12-08T04:55:11;1.40;99.90
39825;DHT22;25503;52.532;13.640;2022-12-08T04:57:37;1.40;99.90
39825;DHT22;25503;52.532;13.640;2022-12-08T05:00:04;1.40;99.90
39825;DHT22;25503;52.532;13.640;2022-12-08T05:02:30;1.40;99.90
39825;DHT22;25503;52.532;13.640;2022-12-08T05:04:57;1.40;99.90
39825;DHT22;25503;52.532;13.640;2022-12-08T05:07:22;1.40;99.90
39825;DHT22;25503;52.532;13.640;2022-12-08T05:09:48;1.40;99.90
39825;DHT22;25503;52.532;13.640;2022-12-08T05:12:14;1.40;99.90
39825;DHT22;25503;52.532;13.640;2022-12-08T05:14:39;1.40;99.90
39825;DHT22;25503;52.532;13.640;2022-12-08T05:17:05;1.40;99.90
39825;DHT22;25503;52.532;13.640;2022-12-08T05:19:31;1.40;99.90
39825;DHT22;25503;52.532;13.640;2022-12-08T05:21:56;1.40;99.90
39825;DHT22;25503;52.532;13.640;2022-12-08T05:24:22;1.40;99.90
39825;DHT22;25503;52.532;13.640;2022-12-08T05:26:48;1.50;99.90
39825;DHT22;25503;52.532;13.640;2022-12-08T05:29:13;1.50;99.90
39825;DHT22;25503;52.532;13.640;2022-12-08T05:31:39;1.50;99.90
39825;DHT22;25503;52.532;13.640;2022-12-08T05:34:04;1.40;99.90
39825;DHT22;25503;52.532;13.640;2022-12-08T05:36:30;1.50;99.90
39825;DHT22;25503;52.532;13.640;2022-12-08T05:38:56;1.50;99.90
39825;DHT22;25503;52.532;13.640;2022-12-08T05:41:22;1.50;99.90
39825;DHT22;25503;52.532;13.640;2022-12-08T05:43:48;1.50;99.90
39825;DHT22;25503;52.532;13.640;2022-12-08T05:46:14;1.50;99.90
39825;DHT22;25503;52.532;13.640;2022-12-08T05:48:40;1.50;99.90
39825;DHT22;25503;52.532;13.640;2022-12-08T05:51:10;1.50;99.90
39825;DHT22;25503;52.532;13.640;2022-12-08T05:53:39;1.50;99.90
39825;DHT22;25503;52.532;13.640;2022-12-08T05:56:04;1.50;99.90
39825;DHT22;25503;52.532;13.640;2022-12-08T05:58:30;1.50;99.90
39825;DHT22;25503;52.532;13.640;2022-12-08T06:00:55;1.60;99.90
39825;DHT22;25503;52.532;13.640;2022-12-08T06:03:21;1.60;99.90
39825;DHT22;25503;52.532;13.640;2022-12-08T06:05:47;1.60;99.90
39825;DHT22;25503;52.532;13.640;2022-12-08T06:08:12;1.60;99.90
39825;DHT22;25503;52.532;13.640;2022-12-08T06:10:39;1.60;99.90
39825;DHT22;25503;52.532;13.640;2022-12-08T06:13:05;1.60;99.90
39825;DHT22;25503;52.532;13.640;2022-12-08T06:15:33;1.60;99.90
39825;DHT22;25503;52.532;13.640;2022-12-08T06:17:59;1.60;99.90
39825;DHT22;25503;52.532;13.640;2022-12-08T06:20:25;1.60;99.90
39825;DHT22;25503;52.532;13.640;2022-12-08T06:22:50;1.60;99.90
39825;DHT22;25503;52.532;13.640;2022-12-08T06:25:16;1.70;99.90
39825;DHT22;25503;52.532;13.640;2022-12-08T06:27:42;1.60;99.90
39825;DHT22;25503;52.532;13.640;2022-12-08T06:30:07;1.70;99.90
39825;DHT22;25503;52.532;13.640;2022-12-08T06:32:33;1.70;99.90
39825;DHT22;25503;52.532;13.640;2022-12-08T06:34:59;1.70;99.90
39825;DHT22;25503;52.532;13.640;2022-12-08T06:37:24;1.70;99.90
39825;DHT22;25503;52.532;13.640;2022-12-08T06:39:50;1.70;99.90
39825;DHT22;25503;52.532;13.640;2022-12-08T06:42:16;1.70;99.90
39825;DHT22;25503;52.532;13.640;2022-12-08T06:45:00;1.70;99.90
39825;DHT22;25503;52.532;13.640;2022-12-08T06:47:25;1.70;99.90
39825;DHT22;25503;52.532;13.640;2022-12-08T06:49:51;1.70;99.90
39825;DHT22;25503;52.532;13.640;2022-12-08T06:52:17;1.70;99.90
39825;DHT22;25503;52.532;13.640;2022-12-08T06:54:42;1.80;99.90
39825;DHT22;25503;52.532;13.640;2022-12-08T06:57:08;1.80;99.90
39825;DHT22;25503;52.532;13.640;2022-12-08T06:59:33;1.80;99.90
39825;DHT22;25503;52.532;13.640;2022-12-08T07:01:59;1.80;99.90
39825;DHT22;25503;52.532;13.640;2022-12-08T07:04:25;1.80;99.90
39825;DHT22;25503;52.532;13.640;2022-12-08T07:06:50;1.90;99.90
39825;DHT22;25503;52.532;13.640;2022-12-08T07:09:16;1.90;99.90
39825;DHT22;25503;52.532;13.640;2022-12-08T07:11:41;1.90;99.90
39825;DHT22;25503;52.532;13.640;2022-12-08T07:14:07;1.90;99.90
39825;DHT22;25503;52.532;13.640;2022-12-08T07:16:33;1.90;99.90
39825;DHT22;25503;52.532;13.640;2022-12-08T07:18:59;1.90;99.90
39825;DHT22;25503;52.532;13.640;2022-12-08T07:21:24;2.00;99.90
39825;DHT22;25503;52.532;13.640;2022-12-08T07:23:50;1.90;99.90
39825;DHT22;25503;52.532;13.640;2022-12-08T07:26:16;2.00;99.90
39825;DHT22;25503;52.532;13.640;2022-12-08T07:28:42;2.00;99.90
39825;DHT22;25503;52.532;13.640;2022-12-08T07:31:16;2.00;99.90
39825;DHT22;25503;52.532;13.640;2022-12-08T07:33:42;2.00;99.90
39825;DHT22;25503;52.532;13.640;2022-12-08T07:36:08;2.10;99.90
39825;DHT22;25503;52.532;13.640;2022-12-08T07:38:34;2.00;99.90
39825;DHT22;25503;52.532;13.640;2022-12-08T07:40:59;2.10;99.90
39825;DHT22;25503;52.532;13.640;2022-12-08T07:43:25;2.10;99.90
39825;DHT22;25503;52.532;13.640;2022-12-08T07:45:51;2.10;99.90
39825;DHT22;25503;52.532;13.640;2022-12-08T07:48:17;2.10;99.90
39825;DHT22;25503;52.532;13.640;2022-12-08T07:50:44;2.10;99.90
39825;DHT22;25503;52.532;13.640;2022-12-08T07:53:09;2.10;99.90
39825;DHT22;25503;52.532;13.640;2022-12-08T07:55:42;2.10;99.90
39825;DHT22;25503;52.532;13.640;2022-12-08T07:58:08;2.10;99.90
39825;DHT22;25503;52.532;13.640;2022-12-08T08:00:34;2.10;99.90
39825;DHT22;25503;52.532;13.640;2022-12-08T08:03:00;2.20;99.90
39825;DHT22;25503;52.532;13.640;2022-12-08T08:05:25;2.20;99.90
39825;DHT22;25503;52.532;13.640;2022-12-08T08:07:51;2.20;99.90
39825;DHT22;25503;52.532;13.640;2022-12-08T08:10:17;2.30;99.90
39825;DHT22;25503;52.532;13.640;2022-12-08T08:12:43;2.30;99.90
39825;DHT22;25503;52.532;13.640;2022-12-08T08:15:09;2.30;99.90
39825;DHT22;25503;52.532;13.640;2022-12-08T08:17:36;2.30;99.90
39825;DHT22;25503;52.532;13.640;2022-12-08T08:20:04;2.30;99.90
39825;DHT22;25503;52.532;13.640;2022-12-08T08:22:31;2.30;99.90
39825;DHT22;25503;52.532;13.640;2022-12-08T08:24:57;2.30;99.90
39825;DHT22;25503;52.532;13.640;2022-12-08T08:27:23;2.30;99.90
39825;DHT22;25503;52.532;13.640;2022-12-08T08:29:50;2.30;99.90
39825;DHT22;25503;52.532;13.640;2022-12-08T08:32:15;2.40;99.90
39825;DHT22;25503;52.532;13.640;2022-12-08T08:34:42;2.30;99.90
39825;DHT22;25503;52.532;13.640;2022-12-08T08:37:07;2.40;99.90
39825;DHT22;25503;52.532;13.640;2022-12-08T08:39:33;2.40;99.90
39825;DHT22;25503;52.532;13.640;2022-12-08T08:41:58;2.40;99.90
39825;DHT22;25503;52.532;13.640;2022-12-08T08:44:24;2.40;99.90
39825;DHT22;25503;52.532;13.640;2022-12-08T08:46:49;2.40;99.90
39825;DHT22;25503;52.532;13.640;2022-12-08T08:49:15;2.40;99.90
39825;DHT22;25503;52.532;13.640;2022-12-08T08:51:41;2.40;99.90
39825;DHT22;25503;52.532;13.640;2022-12-08T08:54:07;2.50;99.90
39825;DHT22;25503;52.532;13.640;2022-12-08T08:56:32;2.50;99.90
39825;DHT22;25503;52.532;13.640;2022-12-08T08:58:58;2.50;99.90
39825;DHT22;25503;52.532;13.640;2022-12-08T09:01:25;2.50;99.90
39825;DHT22;25503;52.532;13.640;2022-12-08T09:03:51;2.50;99.90
39825;DHT22;25503;52.532;13.640;2022-12-08T09:06:18;2.50;99.90
39825;DHT22;25503;52.532;13.640;2022-12-08T09:08:44;2.60;99.90
39825;DHT22;25503;52.532;13.640;2022-12-08T09:11:10;2.60;99.90
39825;DHT22;25503;52.532;13.640;2022-12-08T09:13:36;2.60;99.90
39825;DHT22;25503;52.532;13.640;2022-12-08T09:16:03;2.60;99.90
39825;DHT22;25503;52.532;13.640;2022-12-08T09:18:29;2.60;99.90
39825;DHT22;25503;52.532;13.640;2022-12-08T09:20:55;2.70;99.90
39825;DHT22;25503;52.532;13.640;2022-12-08T09:23:21;2.70;99.90
39825;DHT22;25503;52.532;13.640;2022-12-08T09:25:46;2.80;99.90
39825;DHT22;25503;52.532;13.640;2022-12-08T09:28:13;2.80;99.90
39825;DHT22;25503;52.532;13.640;2022-12-08T09:30:39;2.80;99.90
39825;DHT22;25503;52.532;13.640;2022-12-08T09:33:05;2.80;99.90
39825;DHT22;25503;52.532;13.640;2022-12-08T09:35:32;2.90;99.90
39825;DHT22;25503;52.532;13.640;2022-12-08T09:37:58;2.90;99.90
39825;DHT22;25503;52.532;13.640;2022-12-08T09:40:25;2.90;99.90
39825;DHT22;25503;52.532;13.640;2022-12-08T09:43:17;2.90;99.90
39825;DHT22;25503;52.532;13.640;2022-12-08T09:45:47;2.90;99.90
39825;DHT22;25503;52.532;13.640;2022-12-08T09:48:18;2.90;99.90
39825;DHT22;25503;52.532;13.640;2022-12-08T09:50:51;3.00;99.90
39825;DHT22;25503;52.532;13.640;2022-12-08T09:53:21;3.00;99.90
39825;DHT22;25503;52.532;13.640;2022-12-08T09:55:55;3.00;99.90
39825;DHT22;25503;52.532;13.640;2022-12-08T09:58:33;3.00;99.90
39825;DHT22;25503;52.532;13.640;2022-12-08T10:00:59;3.00;99.90
39825;DHT22;25503;52.532;13.640;2022-12-08T10:03:27;3.10;99.90
39825;DHT22;25503;52.532;13.640;2022-12-08T10:11:38;3.10;99.90
39825;DHT22;25503;52.532;13.640;2022-12-08T10:16:40;3.20;99.90
39825;DHT22;25503;52.532;13.640;2022-12-08T10:19:19;3.20;99.90
39825;DHT22;25503;52.532;13.640;2022-12-08T10:21:46;3.20;99.90
39825;DHT22;25503;52.532;13.640;2022-12-08T10:24:17;3.30;99.90
39825;DHT22;25503;52.532;13.640;2022-12-08T10:26:46;3.30;99.90
39825;DHT22;25503;52.532;13.640;2022-12-08T10:29:13;3.40;99.90
39825;DHT22;25503;52.532;13.640;2022-12-08T10:31:39;3.40;99.90
39825;DHT22;25503;52.532;13.640;2022-12-08T10:34:16;3.40;99.90
39825;DHT22;25503;52.532;13.640;2022-12-08T10:36:56;3.50;99.90
39825;DHT22;25503;52.532;13.640;2022-12-08T10:39:40;3.50;99.90
39825;DHT22;25503;52.532;13.640;2022-12-08T10:45:02;3.50;99.90
39825;DHT22;25503;52.532;13.640;2022-12-08T10:47:29;3.50;99.90
39825;DHT22;25503;52.532;13.640;2022-12-08T10:53:18;3.50;99.90
39825;DHT22;25503;52.532;13.640;2022-12-08T10:55:52;3.50;99.90
39825;DHT22;25503;52.532;13.640;2022-12-08T10:58:30;3.50;99.90
39825;DHT22;25503;52.532;13.640;2022-12-08T11:01:17;3.50;99.90
39825;DHT22;25503;52.532;13.640;2022-12-08T11:03:58;3.50;99.90
39825;DHT22;25503;52.532;13.640;2022-12-08T11:06:35;3.50;99.90
39825;DHT22;25503;52.532;13.640;2022-12-08T11:09:08;3.50;99.90
39825;DHT22;25503;52.532;13.640;2022-12-08T11:11:58;3.60;99.90
39825;DHT22;25503;52.532;13.640;2022-12-08T11:17:06;3.60;99.90
39825;DHT22;25503;52.532;13.640;2022-12-08T11:19:37;3.60;99.90
39825;DHT22;25503;52.532;13.640;2022-12-08T11:22:34;3.60;99.90
39825;DHT22;25503;52.532;13.640;2022-12-08T11:27:43;3.60;99.90
39825;DHT22;25503;52.532;13.640;2022-12-08T11:30:20;3.60;99.90
39825;DHT22;25503;52.532;13.640;2022-12-08T11:32:48;3.60;99.90
39825;DHT22;25503;52.532;13.640;2022-12-08T11:37:49;3.60;99.90
39825;DHT22;25503;52.532;13.640;2022-12-08T11:40:16;3.60;99.90
39825;DHT22;25503;52.532;13.640;2022-12-08T11:43:03;3.60;99.90
39825;DHT22;25503;52.532;13.640;2022-12-08T11:45:33;3.60;99.90
39825;DHT22;25503;52.532;13.640;2022-12-08T11:50:47;3.60;99.90
39825;DHT22;25503;52.532;13.640;2022-12-08T11:53:25;3.60;99.90
39825;DHT22;25503;52.532;13.640;2022-12-08T11:55:59;3.60;99.90
39825;DHT22;25503;52.532;13.640;2022-12-08T11:58:40;3.50;99.90
39825;DHT22;25503;52.532;13.640;2022-12-08T12:01:22;3.50;99.90
39825;DHT22;25503;52.532;13.640;2022-12-08T12:06:28;3.50;99.90
39825;DHT22;25503;52.532;13.640;2022-12-08T12:12:11;3.50;99.90
39825;DHT22;25503;52.532;13.640;2022-12-08T12:15:01;3.50;99.90
39825;DHT22;25503;52.532;13.640;2022-12-08T12:17:49;3.60;99.90
39825;DHT22;25503;52.532;13.640;2022-12-08T12:23:12;3.60;99.90
39825;DHT22;25503;52.532;13.640;2022-12-08T12:25:49;3.60;99.90
39825;DHT22;25503;52.532;13.640;2022-12-08T12:28:17;3.60;99.90
39825;DHT22;25503;52.532;13.640;2022-12-08T12:30:55;3.60;99.90
39825;DHT22;25503;52.532;13.640;2022-12-08T12:33:23;3.60;99.90
39825;DHT22;25503;52.532;13.640;2022-12-08T12:35:49;3.60;99.90
39825;DHT22;25503;52.532;13.640;2022-12-08T12:38:19;3.70;99.90
39825;DHT22;25503;52.532;13.640;2022-12-08T12:41:06;3.70;99.90
39825;DHT22;25503;52.532;13.640;2022-12-08T12:43:37;3.70;99.90
39825;DHT22;25503;52.532;13.640;2022-12-08T12:48:47;3.70;99.90
39825;DHT22;25503;52.532;13.640;2022-12-08T12:51:45;3.70;99.90
39825;DHT22;25503;52.532;13.640;2022-12-08T12:54:25;3.70;99.90
39825;DHT22;25503;52.532;13.640;2022-12-08T12:57:14;3.70;99.90
39825;DHT22;25503;52.532;13.640;2022-12-08T13:07:28;3.60;99.90
39825;DHT22;25503;52.532;13.640;2022-12-08T13:09:59;3.60;99.90
39825;DHT22;25503;52.532;13.640;2022-12-08T13:12:26;3.60;99.90
39825;DHT22;25503;52.532;13.640;2022-12-08T13:14:57;3.60;99.90
39825;DHT22;25503;52.532;13.640;2022-12-08T13:17:29;3.60;99.90
39825;DHT22;25503;52.532;13.640;2022-12-08T13:19:58;3.60;99.90
39825;DHT22;25503;52.532;13.640;2022-12-08T13:28:29;3.70;99.90
39825;DHT22;25503;52.532;13.640;2022-12-08T13:30:59;3.70;99.90
39825;DHT22;25503;52.532;13.640;2022-12-08T13:33:30;3.70;99.90
39825;DHT22;25503;52.532;13.640;2022-12-08T13:38:45;3.70;99.90
39825;DHT22;25503;52.532;13.640;2022-12-08T13:41:21;3.70;99.90
39825;DHT22;25503;52.532;13.640;2022-12-08T13:43:59;3.70;99.90
39825;DHT22;25503;52.532;13.640;2022-12-08T13:46:45;3.60;99.90
39825;DHT22;25503;52.532;13.640;2022-12-08T13:49:17;3.60;99.90
39825;DHT22;25503;52.532;13.640;2022-12-08T13:51:46;3.70;99.90
39825;DHT22;25503;52.532;13.640;2022-12-08T13:54:25;3.60;99.90
39825;DHT22;25503;52.532;13.640;2022-12-08T13:56:54;3.60;99.90
39825;DHT22;25503;52.532;13.640;2022-12-08T13:59:33;3.60;99.90
39825;DHT22;25503;52.532;13.640;2022-12-08T14:02:35;3.60;99.90
39825;DHT22;25503;52.532;13.640;2022-12-08T14:05:02;3.60;99.90
39825;DHT22;25503;52.532;13.640;2022-12-08T14:07:28;3.60;99.90
39825;DHT22;25503;52.532;13.640;2022-12-08T14:09:55;3.60;99.90
39825;DHT22;25503;52.532;13.640;2022-12-08T14:12:25;3.60;99.90
39825;DHT22;25503;52.532;13.640;2022-12-08T14:14:57;3.50;99.90
39825;DHT22;25503;52.532;13.640;2022-12-08T14:17:23;3.60;99.90
39825;DHT22;25503;52.532;13.640;2022-12-08T14:19:54;3.60;99.90
39825;DHT22;25503;52.532;13.640;2022-12-08T14:22:21;3.50;99.90
39825;DHT22;25503;52.532;13.640;2022-12-08T14:24:49;3.50;99.90
39825;DHT22;25503;52.532;13.640;2022-12-08T14:27:25;3.50;99.90
39825;DHT22;25503;52.532;13.640;2022-12-08T14:29:54;3.50;99.90
39825;DHT22;25503;52.532;13.640;2022-12-08T14:32:42;3.50;99.90
39825;DHT22;25503;52.532;13.640;2022-12-08T14:37:36;3.50;99.90
39825;DHT22;25503;52.532;13.640;2022-12-08T14:42:42;3.50;99.90
39825;DHT22;25503;52.532;13.640;2022-12-08T14:45:13;3.50;99.90
39825;DHT22;25503;52.532;13.640;2022-12-08T14:47:39;3.50;99.90
39825;DHT22;25503;52.532;13.640;2022-12-08T14:50:41;3.50;99.90
39825;DHT22;25503;52.532;13.640;2022-12-08T14:53:18;3.50;99.90
39825;DHT22;25503;52.532;13.640;2022-12-08T14:55:47;3.50;99.90
39825;DHT22;25503;52.532;13.640;2022-12-08T14:58:27;3.50;99.90
39825;DHT22;25503;52.532;13.640;2022-12-08T15:00:55;3.50;99.90
39825;DHT22;25503;52.532;13.640;2022-12-08T15:03:24;3.50;99.90
39825;DHT22;25503;52.532;13.640;2022-12-08T15:05:53;3.50;99.90
39825;DHT22;25503;52.532;13.640;2022-12-08T15:08:20;3.50;99.90
39825;DHT22;25503;52.532;13.640;2022-12-08T15:10:46;3.50;99.90
39825;DHT22;25503;52.532;13.640;2022-12-08T15:13:33;3.40;99.90
39825;DHT22;25503;52.532;13.640;2022-12-08T15:15:58;3.40;99.90
39825;DHT22;25503;52.532;13.640;2022-12-08T15:18:37;3.40;99.90
39825;DHT22;25503;52.532;13.640;2022-12-08T15:21:08;3.40;99.90
39825;DHT22;25503;52.532;13.640;2022-12-08T15:23:47;3.40;99.90
39825;DHT22;25503;52.532;13.640;2022-12-08T15:26:25;3.40;99.90
39825;DHT22;25503;52.532;13.640;2022-12-08T15:28:51;3.40;99.90
39825;DHT22;25503;52.532;13.640;2022-12-08T15:31:17;3.40;99.90
39825;DHT22;25503;52.532;13.640;2022-12-08T15:33:43;3.40;99.90
39825;DHT22;25503;52.532;13.640;2022-12-08T15:36:09;3.40;99.90
39825;DHT22;25503;52.532;13.640;2022-12-08T15:38:34;3.40;99.90
39825;DHT22;25503;52.532;13.640;2022-12-08T15:41:00;3.40;99.90
39825;DHT22;25503;52.532;13.640;2022-12-08T15:43:26;3.40;99.90
39825;DHT22;25503;52.532;13.640;2022-12-08T15:45:53;3.40;99.90
39825;DHT22;25503;52.532;13.640;2022-12-08T15:48:24;3.40;99.90
39825;DHT22;25503;52.532;13.640;2022-12-08T15:50:51;3.40;99.90
39825;DHT22;25503;52.532;13.640;2022-12-08T15:53:17;3.40;99.90
39825;DHT22;25503;52.532;13.640;2022-12-08T15:55:43;3.30;99.90
39825;DHT22;25503;52.532;13.640;2022-12-08T15:58:21;3.40;99.90
39825;DHT22;25503;52.532;13.640;2022-12-08T16:00:47;3.40;99.90
39825;DHT22;25503;52.532;13.640;2022-12-08T16:03:30;3.40;99.90
39825;DHT22;25503;52.532;13.640;2022-12-08T16:05:57;3.40;99.90
39825;DHT22;25503;52.532;13.640;2022-12-08T16:08:27;3.30;99.90
39825;DHT22;25503;52.532;13.640;2022-12-08T16:10:54;3.40;99.90
39825;DHT22;25503;52.532;13.640;2022-12-08T16:13:39;3.30;99.90
39825;DHT22;25503;52.532;13.640;2022-12-08T16:16:19;3.30;99.90
39825;DHT22;25503;52.532;13.640;2022-12-08T16:18:48;3.30;99.90
39825;DHT22;25503;52.532;13.640;2022-12-08T16:21:14;3.30;99.90
39825;DHT22;25503;52.532;13.640;2022-12-08T16:23:41;3.30;99.90
39825;DHT22;25503;52.532;13.640;2022-12-08T16:26:13;3.20;99.90
39825;DHT22;25503;52.532;13.640;2022-12-08T16:28:40;3.20;99.90
39825;DHT22;25503;52.532;13.640;2022-12-08T16:31:06;3.20;99.90
39825;DHT22;25503;52.532;13.640;2022-12-08T16:33:32;3.20;99.90
39825;DHT22;25503;52.532;13.640;2022-12-08T16:35:57;3.20;99.90
39825;DHT22;25503;52.532;13.640;2022-12-08T16:38:23;3.10;99.90
39825;DHT22;25503;52.532;13.640;2022-12-08T16:40:48;3.10;99.90
39825;DHT22;25503;52.532;13.640;2022-12-08T16:43:33;3.10;99.90
39825;DHT22;25503;52.532;13.640;2022-12-08T16:46:00;3.00;99.90
39825;DHT22;25503;52.532;13.640;2022-12-08T16:48:26;3.00;99.90
39825;DHT22;25503;52.532;13.640;2022-12-08T16:50:51;3.00;99.90
39825;DHT22;25503;52.532;13.640;2022-12-08T16:53:18;2.90;99.90
39825;DHT22;25503;52.532;13.640;2022-12-08T16:55:46;2.90;99.90
39825;DHT22;25503;52.532;13.640;2022-12-08T16:58:12;2.90;99.90
39825;DHT22;25503;52.532;13.640;2022-12-08T17:00:37;2.80;99.90
39825;DHT22;25503;52.532;13.640;2022-12-08T17:03:04;2.80;99.90
39825;DHT22;25503;52.532;13.640;2022-12-08T17:05:32;2.70;99.90
39825;DHT22;25503;52.532;13.640;2022-12-08T17:07:58;2.70;99.90
39825;DHT22;25503;52.532;13.640;2022-12-08T17:10:27;2.70;99.90